sensor_id;sensor_type;location;lat;lon;timestamp;P1;durP1;ratioP1;P2;durP2;ratioP2
6531;SDS011;3299;42.004;24.868;2022-07-29T00:00:59;6.22;;;5.63;;
6531;SDS011;3299;42.004;24.868;2022-07-29T00:03:25;7.10;;;6.20;;
6531;SDS011;3299;42.004;24.868;2022-07-29T00:05:50;6.60;;;5.93;;
6531;SDS011;3299;42.004;24.868;2022-07-29T00:08:17;5.93;;;5.35;;
6531;SDS011;3299;42.004;24.868;2022-07-29T00:10:43;6.13;;;5.63;;
6531;SDS011;3299;42.004;24.868;2022-07-29T00:13:09;8.15;;;5.32;;
6531;SDS011;3299;42.004;24.868;2022-07-29T00:15:35;6.85;;;5.38;;
6531;SDS011;3299;42.004;24.868;2022-07-29T00:18:00;6.57;;;5.60;;
6531;SDS011;3299;42.004;24.868;2022-07-29T00:20:25;6.45;;;5.78;;
6531;SDS011;3299;42.004;24.868;2022-07-29T00:22:51;8.05;;;5.63;;
6531;SDS011;3299;42.004;24.868;2022-07-29T00:25:16;6.20;;;5.70;;
6531;SDS011;3299;42.004;24.868;2022-07-29T00:27:42;5.75;;;5.25;;
6531;SDS011;3299;42.004;24.868;2022-07-29T00:30:07;5.72;;;5.22;;
6531;SDS011;3299;42.004;24.868;2022-07-29T00:32:33;5.82;;;5.25;;
6531;SDS011;3299;42.004;24.868;2022-07-29T00:34:59;6.38;;;5.70;;
6531;SDS011;3299;42.004;24.868;2022-07-29T00:37:43;7.00;;;6.30;;
6531;SDS011;3299;42.004;24.868;2022-07-29T00:40:09;5.80;;;5.28;;
6531;SDS011;3299;42.004;24.868;2022-07-29T00:42:45;6.20;;;5.70;;
6531;SDS011;3299;42.004;24.868;2022-07-29T00:45:11;6.13;;;5.57;;
6531;SDS011;3299;42.004;24.868;2022-07-29T00:47:37;7.00;;;5.75;;
6531;SDS011;3299;42.004;24.868;2022-07-29T00:50:03;8.25;;;5.93;;
6531;SDS011;3299;42.004;24.868;2022-07-29T00:52:29;5.43;;;5.03;;
6531;SDS011;3299;42.004;24.868;2022-07-29T00:54:55;5.90;;;5.30;;
6531;SDS011;3299;42.004;24.868;2022-07-29T00:57:21;5.10;;;4.63;;
6531;SDS011;3299;42.004;24.868;2022-07-29T00:59:46;5.28;;;4.88;;
6531;SDS011;3299;42.004;24.868;2022-07-29T01:02:12;4.90;;;4.43;;
6531;SDS011;3299;42.004;24.868;2022-07-29T01:04:37;4.88;;;4.47;;
6531;SDS011;3299;42.004;24.868;2022-07-29T01:07:03;4.53;;;4.13;;
6531;SDS011;3299;42.004;24.868;2022-07-29T01:09:31;4.53;;;4.22;;
6531;SDS011;3299;42.004;24.868;2022-07-29T01:11:57;4.97;;;4.57;;
6531;SDS011;3299;42.004;24.868;2022-07-29T01:14:24;5.75;;;5.22;;
6531;SDS011;3299;42.004;24.868;2022-07-29T01:16:54;6.30;;;5.70;;
6531;SDS011;3299;42.004;24.868;2022-07-29T01:22:05;7.88;;;5.90;;
6531;SDS011;3299;42.004;24.868;2022-07-29T01:30:42;6.03;;;5.20;;
6531;SDS011;3299;42.004;24.868;2022-07-29T01:33:11;5.65;;;5.15;;
6531;SDS011;3299;42.004;24.868;2022-07-29T01:36:01;6.72;;;5.25;;
6531;SDS011;3299;42.004;24.868;2022-07-29T01:38:34;7.95;;;5.40;;
6531;SDS011;3299;42.004;24.868;2022-07-29T01:41:05;5.38;;;4.88;;
6531;SDS011;3299;42.004;24.868;2022-07-29T01:44:19;5.65;;;5.10;;
6531;SDS011;3299;42.004;24.868;2022-07-29T01:46:37;10.82;;;5.80;;
6531;SDS011;3299;42.004;24.868;2022-07-29T01:49:08;6.90;;;5.95;;
6531;SDS011;3299;42.004;24.868;2022-07-29T01:51:47;5.78;;;5.28;;
6531;SDS011;3299;42.004;24.868;2022-07-29T01:54:21;5.75;;;5.25;;
6531;SDS011;3299;42.004;24.868;2022-07-29T01:56:55;6.22;;;5.63;;
6531;SDS011;3299;42.004;24.868;2022-07-29T01:59:22;5.50;;;4.97;;
6531;SDS011;3299;42.004;24.868;2022-07-29T02:01:49;7.78;;;5.50;;
6531;SDS011;3299;42.004;24.868;2022-07-29T02:04:18;5.75;;;5.25;;
6531;SDS011;3299;42.004;24.868;2022-07-29T02:06:45;5.72;;;5.22;;
6531;SDS011;3299;42.004;24.868;2022-07-29T02:09:14;6.90;;;5.03;;
6531;SDS011;3299;42.004;24.868;2022-07-29T02:11:41;5.28;;;4.82;;
6531;SDS011;3299;42.004;24.868;2022-07-29T02:14:15;5.82;;;5.22;;
6531;SDS011;3299;42.004;24.868;2022-07-29T02:16:42;6.80;;;4.47;;
6531;SDS011;3299;42.004;24.868;2022-07-29T02:19:09;5.93;;;4.90;;
6531;SDS011;3299;42.004;24.868;2022-07-29T02:21:35;5.20;;;4.80;;
6531;SDS011;3299;42.004;24.868;2022-07-29T02:24:01;6.38;;;5.78;;
6531;SDS011;3299;42.004;24.868;2022-07-29T02:26:29;6.53;;;5.13;;
6531;SDS011;3299;42.004;24.868;2022-07-29T02:28:57;5.90;;;5.43;;
6531;SDS011;3299;42.004;24.868;2022-07-29T02:31:27;5.22;;;4.90;;
6531;SDS011;3299;42.004;24.868;2022-07-29T02:33:57;6.60;;;5.00;;
6531;SDS011;3299;42.004;24.868;2022-07-29T02:36:24;5.75;;;4.88;;
6531;SDS011;3299;42.004;24.868;2022-07-29T02:38:50;6.43;;;5.13;;
6531;SDS011;3299;42.004;24.868;2022-07-29T02:41:28;7.80;;;5.80;;
6531;SDS011;3299;42.004;24.868;2022-07-29T02:43:55;5.85;;;5.22;;
6531;SDS011;3299;42.004;24.868;2022-07-29T02:46:31;5.10;;;4.70;;
6531;SDS011;3299;42.004;24.868;2022-07-29T02:51:55;5.10;;;4.60;;
6531;SDS011;3299;42.004;24.868;2022-07-29T02:54:48;5.13;;;4.72;;
6531;SDS011;3299;42.004;24.868;2022-07-29T02:57:20;5.85;;;4.88;;
6531;SDS011;3299;42.004;24.868;2022-07-29T02:59:52;7.28;;;5.35;;
6531;SDS011;3299;42.004;24.868;2022-07-29T03:02:21;5.40;;;4.90;;
6531;SDS011;3299;42.004;24.868;2022-07-29T03:04:47;5.93;;;4.97;;
6531;SDS011;3299;42.004;24.868;2022-07-29T03:07:14;5.60;;;4.68;;
6531;SDS011;3299;42.004;24.868;2022-07-29T03:09:43;5.38;;;4.55;;
6531;SDS011;3299;42.004;24.868;2022-07-29T03:12:10;4.97;;;4.47;;
6531;SDS011;3299;42.004;24.868;2022-07-29T03:14:36;5.78;;;4.60;;
6531;SDS011;3299;42.004;24.868;2022-07-29T03:17:03;7.65;;;5.07;;
6531;SDS011;3299;42.004;24.868;2022-07-29T03:19:29;5.68;;;4.35;;
6531;SDS011;3299;42.004;24.868;2022-07-29T03:21:57;5.38;;;4.88;;
6531;SDS011;3299;42.004;24.868;2022-07-29T03:24:24;5.38;;;4.10;;
6531;SDS011;3299;42.004;24.868;2022-07-29T03:26:54;5.18;;;4.60;;
6531;SDS011;3299;42.004;24.868;2022-07-29T03:29:20;5.03;;;4.38;;
6531;SDS011;3299;42.004;24.868;2022-07-29T03:31:45;4.30;;;4.00;;
6531;SDS011;3299;42.004;24.868;2022-07-29T03:34:11;5.65;;;4.78;;
6531;SDS011;3299;42.004;24.868;2022-07-29T03:36:36;4.88;;;4.22;;
6531;SDS011;3299;42.004;24.868;2022-07-29T03:39:01;5.00;;;4.60;;
6531;SDS011;3299;42.004;24.868;2022-07-29T03:41:29;5.78;;;5.25;;
6531;SDS011;3299;42.004;24.868;2022-07-29T03:43:56;7.88;;;4.70;;
6531;SDS011;3299;42.004;24.868;2022-07-29T03:46:23;5.85;;;5.35;;
6531;SDS011;3299;42.004;24.868;2022-07-29T03:48:55;5.38;;;4.88;;
6531;SDS011;3299;42.004;24.868;2022-07-29T03:51:23;5.53;;;5.03;;
6531;SDS011;3299;42.004;24.868;2022-07-29T03:53:49;6.72;;;5.30;;
6531;SDS011;3299;42.004;24.868;2022-07-29T03:56:15;6.10;;;5.50;;
6531;SDS011;3299;42.004;24.868;2022-07-29T03:58:42;5.60;;;4.80;;
6531;SDS011;3299;42.004;24.868;2022-07-29T04:01:09;6.53;;;5.25;;
6531;SDS011;3299;42.004;24.868;2022-07-29T04:03:35;5.07;;;4.22;;
6531;SDS011;3299;42.004;24.868;2022-07-29T04:06:04;5.85;;;4.65;;
6531;SDS011;3299;42.004;24.868;2022-07-29T04:08:31;4.85;;;4.35;;
6531;SDS011;3299;42.004;24.868;2022-07-29T04:10:57;6.50;;;4.88;;
6531;SDS011;3299;42.004;24.868;2022-07-29T04:13:23;5.25;;;4.80;;
6531;SDS011;3299;42.004;24.868;2022-07-29T04:15:49;6.35;;;4.85;;
6531;SDS011;3299;42.004;24.868;2022-07-29T04:18:14;8.93;;;4.90;;
6531;SDS011;3299;42.004;24.868;2022-07-29T04:20:39;5.60;;;5.20;;
6531;SDS011;3299;42.004;24.868;2022-07-29T04:23:05;7.22;;;5.18;;
6531;SDS011;3299;42.004;24.868;2022-07-29T04:25:30;5.60;;;5.10;;
6531;SDS011;3299;42.004;24.868;2022-07-29T04:27:56;5.72;;;5.13;;
6531;SDS011;3299;42.004;24.868;2022-07-29T04:30:28;6.57;;;5.43;;
6531;SDS011;3299;42.004;24.868;2022-07-29T04:32:53;4.85;;;4.45;;
6531;SDS011;3299;42.004;24.868;2022-07-29T04:35:19;5.40;;;4.90;;
6531;SDS011;3299;42.004;24.868;2022-07-29T04:37:46;5.97;;;4.57;;
6531;SDS011;3299;42.004;24.868;2022-07-29T04:40:12;5.80;;;5.30;;
6531;SDS011;3299;42.004;24.868;2022-07-29T04:42:37;5.00;;;4.60;;
6531;SDS011;3299;42.004;24.868;2022-07-29T04:45:03;5.40;;;4.70;;
6531;SDS011;3299;42.004;24.868;2022-07-29T04:47:29;5.88;;;5.35;;
6531;SDS011;3299;42.004;24.868;2022-07-29T04:49:55;6.13;;;5.35;;
6531;SDS011;3299;42.004;24.868;2022-07-29T04:52:21;5.57;;;5.10;;
6531;SDS011;3299;42.004;24.868;2022-07-29T04:54:47;5.88;;;5.30;;
6531;SDS011;3299;42.004;24.868;2022-07-29T04:57:13;6.70;;;5.38;;
6531;SDS011;3299;42.004;24.868;2022-07-29T04:59:39;5.32;;;4.93;;
6531;SDS011;3299;42.004;24.868;2022-07-29T05:02:05;5.75;;;5.28;;
6531;SDS011;3299;42.004;24.868;2022-07-29T05:04:30;5.00;;;4.70;;
6531;SDS011;3299;42.004;24.868;2022-07-29T05:06:56;5.93;;;5.43;;
6531;SDS011;3299;42.004;24.868;2022-07-29T05:09:21;5.68;;;5.18;;
6531;SDS011;3299;42.004;24.868;2022-07-29T05:11:46;5.53;;;5.03;;
6531;SDS011;3299;42.004;24.868;2022-07-29T05:14:12;8.70;;;5.30;;
6531;SDS011;3299;42.004;24.868;2022-07-29T05:16:38;5.30;;;4.80;;
6531;SDS011;3299;42.004;24.868;2022-07-29T05:19:05;5.70;;;4.78;;
6531;SDS011;3299;42.004;24.868;2022-07-29T05:21:30;5.68;;;5.13;;
6531;SDS011;3299;42.004;24.868;2022-07-29T05:23:55;5.75;;;4.82;;
6531;SDS011;3299;42.004;24.868;2022-07-29T05:26:21;5.93;;;5.38;;
6531;SDS011;3299;42.004;24.868;2022-07-29T05:28:47;5.45;;;4.97;;
6531;SDS011;3299;42.004;24.868;2022-07-29T05:31:12;6.30;;;5.35;;
6531;SDS011;3299;42.004;24.868;2022-07-29T05:33:39;6.97;;;5.22;;
6531;SDS011;3299;42.004;24.868;2022-07-29T05:36:05;6.38;;;5.03;;
6531;SDS011;3299;42.004;24.868;2022-07-29T05:38:32;6.43;;;5.00;;
6531;SDS011;3299;42.004;24.868;2022-07-29T05:40:59;5.75;;;5.10;;
6531;SDS011;3299;42.004;24.868;2022-07-29T05:43:25;5.63;;;4.75;;
6531;SDS011;3299;42.004;24.868;2022-07-29T05:45:51;5.63;;;5.13;;
6531;SDS011;3299;42.004;24.868;2022-07-29T05:48:17;5.75;;;5.25;;
6531;SDS011;3299;42.004;24.868;2022-07-29T05:50:42;5.43;;;4.97;;
6531;SDS011;3299;42.004;24.868;2022-07-29T05:53:08;7.45;;;5.80;;
6531;SDS011;3299;42.004;24.868;2022-07-29T05:55:33;5.72;;;5.22;;
6531;SDS011;3299;42.004;24.868;2022-07-29T05:57:59;5.25;;;4.75;;
6531;SDS011;3299;42.004;24.868;2022-07-29T06:00:24;5.88;;;5.38;;
6531;SDS011;3299;42.004;24.868;2022-07-29T06:02:49;7.40;;;4.93;;
6531;SDS011;3299;42.004;24.868;2022-07-29T06:05:15;7.07;;;5.00;;
6531;SDS011;3299;42.004;24.868;2022-07-29T06:07:40;7.55;;;5.07;;
6531;SDS011;3299;42.004;24.868;2022-07-29T06:10:06;6.03;;;5.10;;
6531;SDS011;3299;42.004;24.868;2022-07-29T06:12:31;5.78;;;5.15;;
6531;SDS011;3299;42.004;24.868;2022-07-29T06:14:57;7.03;;;5.07;;
6531;SDS011;3299;42.004;24.868;2022-07-29T06:17:23;5.68;;;5.00;;
6531;SDS011;3299;42.004;24.868;2022-07-29T06:19:48;6.05;;;5.35;;
6531;SDS011;3299;42.004;24.868;2022-07-29T06:22:16;7.25;;;5.40;;
6531;SDS011;3299;42.004;24.868;2022-07-29T06:24:42;5.80;;;5.18;;
6531;SDS011;3299;42.004;24.868;2022-07-29T06:27:09;5.57;;;5.07;;
6531;SDS011;3299;42.004;24.868;2022-07-29T06:29:35;5.18;;;4.78;;
6531;SDS011;3299;42.004;24.868;2022-07-29T06:32:01;4.90;;;4.60;;
6531;SDS011;3299;42.004;24.868;2022-07-29T06:34:27;5.30;;;4.80;;
6531;SDS011;3299;42.004;24.868;2022-07-29T06:36:52;7.00;;;4.78;;
6531;SDS011;3299;42.004;24.868;2022-07-29T06:39:18;4.68;;;4.32;;
6531;SDS011;3299;42.004;24.868;2022-07-29T06:41:46;5.65;;;5.18;;
6531;SDS011;3299;42.004;24.868;2022-07-29T06:44:13;6.50;;;5.43;;
6531;SDS011;3299;42.004;24.868;2022-07-29T06:46:39;6.88;;;4.90;;
6531;SDS011;3299;42.004;24.868;2022-07-29T06:49:04;5.45;;;4.82;;
6531;SDS011;3299;42.004;24.868;2022-07-29T06:51:30;4.90;;;4.50;;
6531;SDS011;3299;42.004;24.868;2022-07-29T06:53:55;5.75;;;5.25;;
6531;SDS011;3299;42.004;24.868;2022-07-29T06:56:22;4.95;;;4.55;;
6531;SDS011;3299;42.004;24.868;2022-07-29T06:58:48;6.05;;;4.85;;
6531;SDS011;3299;42.004;24.868;2022-07-29T07:01:13;5.28;;;4.75;;
6531;SDS011;3299;42.004;24.868;2022-07-29T07:03:38;5.72;;;4.32;;
6531;SDS011;3299;42.004;24.868;2022-07-29T07:06:04;4.70;;;4.30;;
6531;SDS011;3299;42.004;24.868;2022-07-29T07:08:29;5.15;;;4.45;;
6531;SDS011;3299;42.004;24.868;2022-07-29T07:10:55;5.65;;;4.03;;
6531;SDS011;3299;42.004;24.868;2022-07-29T07:13:21;7.68;;;4.85;;
6531;SDS011;3299;42.004;24.868;2022-07-29T07:15:47;6.13;;;4.40;;
6531;SDS011;3299;42.004;24.868;2022-07-29T07:18:13;5.63;;;3.75;;
6531;SDS011;3299;42.004;24.868;2022-07-29T07:20:40;3.78;;;3.50;;
6531;SDS011;3299;42.004;24.868;2022-07-29T07:23:05;4.40;;;3.80;;
6531;SDS011;3299;42.004;24.868;2022-07-29T07:25:31;6.40;;;4.20;;
6531;SDS011;3299;42.004;24.868;2022-07-29T07:27:57;4.93;;;4.50;;
6531;SDS011;3299;42.004;24.868;2022-07-29T07:30:22;6.90;;;4.80;;
6531;SDS011;3299;42.004;24.868;2022-07-29T07:32:47;5.30;;;4.80;;
6531;SDS011;3299;42.004;24.868;2022-07-29T07:35:13;6.03;;;4.60;;
6531;SDS011;3299;42.004;24.868;2022-07-29T07:37:39;6.68;;;4.47;;
6531;SDS011;3299;42.004;24.868;2022-07-29T07:40:08;16.05;;;5.07;;
6531;SDS011;3299;42.004;24.868;2022-07-29T07:42:36;5.85;;;4.43;;
6531;SDS011;3299;42.004;24.868;2022-07-29T07:45:03;7.93;;;4.60;;
6531;SDS011;3299;42.004;24.868;2022-07-29T07:47:29;6.10;;;4.13;;
6531;SDS011;3299;42.004;24.868;2022-07-29T07:49:55;5.68;;;4.72;;
6531;SDS011;3299;42.004;24.868;2022-07-29T07:52:21;5.80;;;4.65;;
6531;SDS011;3299;42.004;24.868;2022-07-29T07:54:47;5.22;;;4.82;;
6531;SDS011;3299;42.004;24.868;2022-07-29T07:57:13;6.78;;;4.38;;
6531;SDS011;3299;42.004;24.868;2022-07-29T07:59:40;4.15;;;3.75;;
6531;SDS011;3299;42.004;24.868;2022-07-29T08:02:06;5.72;;;4.90;;
6531;SDS011;3299;42.004;24.868;2022-07-29T08:04:32;6.38;;;3.30;;
6531;SDS011;3299;42.004;24.868;2022-07-29T08:06:58;3.60;;;3.30;;
6531;SDS011;3299;42.004;24.868;2022-07-29T08:09:25;3.10;;;2.80;;
6531;SDS011;3299;42.004;24.868;2022-07-29T08:11:52;3.30;;;3.00;;
6531;SDS011;3299;42.004;24.868;2022-07-29T08:14:17;5.55;;;3.22;;
6531;SDS011;3299;42.004;24.868;2022-07-29T08:16:43;4.80;;;3.55;;
6531;SDS011;3299;42.004;24.868;2022-07-29T08:19:09;3.97;;;3.17;;
6531;SDS011;3299;42.004;24.868;2022-07-29T08:21:35;3.67;;;3.38;;
6531;SDS011;3299;42.004;24.868;2022-07-29T08:24:01;4.20;;;3.85;;
6531;SDS011;3299;42.004;24.868;2022-07-29T08:26:45;5.28;;;3.88;;
6531;SDS011;3299;42.004;24.868;2022-07-29T08:29:10;5.15;;;3.42;;
6531;SDS011;3299;42.004;24.868;2022-07-29T08:31:36;3.28;;;2.97;;
6531;SDS011;3299;42.004;24.868;2022-07-29T08:34:03;3.60;;;3.03;;
6531;SDS011;3299;42.004;24.868;2022-07-29T08:36:29;6.70;;;3.33;;
6531;SDS011;3299;42.004;24.868;2022-07-29T08:38:55;3.75;;;3.40;;
6531;SDS011;3299;42.004;24.868;2022-07-29T08:41:20;3.40;;;3.10;;
6531;SDS011;3299;42.004;24.868;2022-07-29T08:43:46;2.90;;;2.60;;
6531;SDS011;3299;42.004;24.868;2022-07-29T08:46:15;6.88;;;6.22;;
6531;SDS011;3299;42.004;24.868;2022-07-29T08:48:41;3.53;;;3.22;;
6531;SDS011;3299;42.004;24.868;2022-07-29T08:51:07;2.53;;;2.33;;
6531;SDS011;3299;42.004;24.868;2022-07-29T08:53:37;9.43;;;3.83;;
6531;SDS011;3299;42.004;24.868;2022-07-29T08:56:07;3.00;;;2.70;;
6531;SDS011;3299;42.004;24.868;2022-07-29T08:58:38;2.50;;;2.38;;
6531;SDS011;3299;42.004;24.868;2022-07-29T09:01:04;4.45;;;2.75;;
6531;SDS011;3299;42.004;24.868;2022-07-29T09:03:30;7.65;;;2.92;;
6531;SDS011;3299;42.004;24.868;2022-07-29T09:05:57;3.03;;;1.90;;
6531;SDS011;3299;42.004;24.868;2022-07-29T09:08:23;3.55;;;2.25;;
6531;SDS011;3299;42.004;24.868;2022-07-29T09:10:49;4.05;;;2.60;;
6531;SDS011;3299;42.004;24.868;2022-07-29T09:13:15;2.75;;;2.50;;
6531;SDS011;3299;42.004;24.868;2022-07-29T09:15:41;4.47;;;2.75;;
6531;SDS011;3299;42.004;24.868;2022-07-29T09:18:06;5.03;;;2.45;;
6531;SDS011;3299;42.004;24.868;2022-07-29T09:20:32;2.58;;;2.20;;
6531;SDS011;3299;42.004;24.868;2022-07-29T09:23:16;4.32;;;2.33;;
6531;SDS011;3299;42.004;24.868;2022-07-29T09:25:41;5.15;;;2.85;;
6531;SDS011;3299;42.004;24.868;2022-07-29T09:28:07;2.85;;;2.50;;
6531;SDS011;3299;42.004;24.868;2022-07-29T09:30:35;2.78;;;2.42;;
6531;SDS011;3299;42.004;24.868;2022-07-29T09:33:01;2.05;;;1.95;;
6531;SDS011;3299;42.004;24.868;2022-07-29T09:35:28;2.20;;;2.00;;
6531;SDS011;3299;42.004;24.868;2022-07-29T09:37:54;3.10;;;2.33;;
6531;SDS011;3299;42.004;24.868;2022-07-29T09:40:24;2.17;;;2.03;;
6531;SDS011;3299;42.004;24.868;2022-07-29T09:42:51;8.30;;;2.20;;
6531;SDS011;3299;42.004;24.868;2022-07-29T09:45:28;1.92;;;1.83;;
6531;SDS011;3299;42.004;24.868;2022-07-29T09:47:58;2.47;;;2.28;;
6531;SDS011;3299;42.004;24.868;2022-07-29T09:51:01;2.33;;;2.13;;
6531;SDS011;3299;42.004;24.868;2022-07-29T09:55:56;2.72;;;2.50;;
6531;SDS011;3299;42.004;24.868;2022-07-29T09:58:22;3.05;;;2.40;;
6531;SDS011;3299;42.004;24.868;2022-07-29T10:00:48;4.85;;;2.22;;
6531;SDS011;3299;42.004;24.868;2022-07-29T10:03:15;2.20;;;2.00;;
6531;SDS011;3299;42.004;24.868;2022-07-29T10:05:41;4.35;;;2.40;;
6531;SDS011;3299;42.004;24.868;2022-07-29T10:08:09;2.17;;;2.08;;
6531;SDS011;3299;42.004;24.868;2022-07-29T10:10:36;2.78;;;2.50;;
6531;SDS011;3299;42.004;24.868;2022-07-29T10:13:04;3.00;;;2.70;;
6531;SDS011;3299;42.004;24.868;2022-07-29T10:15:32;3.28;;;2.55;;
6531;SDS011;3299;42.004;24.868;2022-07-29T10:18:02;2.60;;;2.40;;
6531;SDS011;3299;42.004;24.868;2022-07-29T10:20:27;2.67;;;2.50;;
6531;SDS011;3299;42.004;24.868;2022-07-29T10:22:53;4.15;;;2.50;;
6531;SDS011;3299;42.004;24.868;2022-07-29T10:25:20;2.85;;;2.60;;
6531;SDS011;3299;42.004;24.868;2022-07-29T10:27:47;3.13;;;2.30;;
6531;SDS011;3299;42.004;24.868;2022-07-29T10:30:15;2.63;;;2.42;;
6531;SDS011;3299;42.004;24.868;2022-07-29T10:38:15;4.07;;;2.60;;
6531;SDS011;3299;42.004;24.868;2022-07-29T10:44:04;2.80;;;2.60;;
6531;SDS011;3299;42.004;24.868;2022-07-29T10:46:36;4.68;;;2.40;;
6531;SDS011;3299;42.004;24.868;2022-07-29T10:49:07;2.47;;;2.38;;
6531;SDS011;3299;42.004;24.868;2022-07-29T10:57:10;4.85;;;2.58;;
6531;SDS011;3299;42.004;24.868;2022-07-29T11:00:35;2.50;;;2.40;;
6531;SDS011;3299;42.004;24.868;2022-07-29T11:05:09;3.08;;;2.30;;
6531;SDS011;3299;42.004;24.868;2022-07-29T11:07:36;2.40;;;2.20;;
6531;SDS011;3299;42.004;24.868;2022-07-29T11:15:06;2.85;;;2.20;;
6531;SDS011;3299;42.004;24.868;2022-07-29T11:20:32;2.60;;;2.40;;
6531;SDS011;3299;42.004;24.868;2022-07-29T11:47:41;3.08;;;2.83;;
6531;SDS011;3299;42.004;24.868;2022-07-29T11:50:16;2.03;;;1.92;;
6531;SDS011;3299;42.004;24.868;2022-07-29T11:52:51;4.63;;;2.40;;
6531;SDS011;3299;42.004;24.868;2022-07-29T11:55:18;2.58;;;2.38;;
6531;SDS011;3299;42.004;24.868;2022-07-29T11:57:51;3.92;;;2.58;;
6531;SDS011;3299;42.004;24.868;2022-07-29T12:00:32;4.60;;;2.53;;
6531;SDS011;3299;42.004;24.868;2022-07-29T12:03:04;4.10;;;2.50;;
6531;SDS011;3299;42.004;24.868;2022-07-29T12:05:32;2.85;;;2.63;;
6531;SDS011;3299;42.004;24.868;2022-07-29T12:08:28;2.70;;;2.50;;
6531;SDS011;3299;42.004;24.868;2022-07-29T12:10:55;2.65;;;2.45;;
6531;SDS011;3299;42.004;24.868;2022-07-29T12:13:21;3.65;;;2.25;;
6531;SDS011;3299;42.004;24.868;2022-07-29T12:15:53;2.63;;;2.42;;
6531;SDS011;3299;42.004;24.868;2022-07-29T12:18:20;2.40;;;2.20;;
6531;SDS011;3299;42.004;24.868;2022-07-29T12:20:46;2.88;;;2.40;;
6531;SDS011;3299;42.004;24.868;2022-07-29T12:23:13;2.80;;;2.60;;
6531;SDS011;3299;42.004;24.868;2022-07-29T12:25:40;2.75;;;2.40;;
6531;SDS011;3299;42.004;24.868;2022-07-29T12:28:08;3.67;;;2.47;;
6531;SDS011;3299;42.004;24.868;2022-07-29T12:30:37;2.90;;;2.55;;
6531;SDS011;3299;42.004;24.868;2022-07-29T12:33:11;7.10;;;2.80;;
6531;SDS011;3299;42.004;24.868;2022-07-29T12:35:44;2.80;;;2.60;;
6531;SDS011;3299;42.004;24.868;2022-07-29T12:38:11;5.03;;;2.40;;
6531;SDS011;3299;42.004;24.868;2022-07-29T12:40:38;4.60;;;2.92;;
6531;SDS011;3299;42.004;24.868;2022-07-29T12:45:36;6.85;;;3.00;;
6531;SDS011;3299;42.004;24.868;2022-07-29T12:48:06;3.55;;;2.58;;
6531;SDS011;3299;42.004;24.868;2022-07-29T12:50:35;4.55;;;3.00;;
6531;SDS011;3299;42.004;24.868;2022-07-29T12:53:08;4.65;;;2.63;;
6531;SDS011;3299;42.004;24.868;2022-07-29T12:58:29;3.67;;;2.63;;
6531;SDS011;3299;42.004;24.868;2022-07-29T13:03:28;3.47;;;2.78;;
6531;SDS011;3299;42.004;24.868;2022-07-29T13:05:54;3.83;;;2.70;;
6531;SDS011;3299;42.004;24.868;2022-07-29T13:08:19;4.07;;;2.88;;
6531;SDS011;3299;42.004;24.868;2022-07-29T13:10:46;3.72;;;3.05;;
6531;SDS011;3299;42.004;24.868;2022-07-29T13:13:13;7.07;;;3.22;;
6531;SDS011;3299;42.004;24.868;2022-07-29T13:15:41;4.50;;;2.70;;
6531;SDS011;3299;42.004;24.868;2022-07-29T13:21:13;3.25;;;2.88;;
6531;SDS011;3299;42.004;24.868;2022-07-29T13:23:40;3.65;;;2.72;;
6531;SDS011;3299;42.004;24.868;2022-07-29T13:26:09;5.65;;;3.15;;
6531;SDS011;3299;42.004;24.868;2022-07-29T13:28:36;4.38;;;3.30;;
6531;SDS011;3299;42.004;24.868;2022-07-29T13:31:02;3.90;;;3.17;;
6531;SDS011;3299;42.004;24.868;2022-07-29T13:33:27;6.47;;;4.40;;
6531;SDS011;3299;42.004;24.868;2022-07-29T13:35:53;4.70;;;3.50;;
6531;SDS011;3299;42.004;24.868;2022-07-29T13:38:18;3.70;;;3.00;;
6531;SDS011;3299;42.004;24.868;2022-07-29T13:40:44;3.50;;;3.20;;
6531;SDS011;3299;42.004;24.868;2022-07-29T13:43:10;4.93;;;3.00;;
6531;SDS011;3299;42.004;24.868;2022-07-29T13:45:35;3.50;;;2.72;;
6531;SDS011;3299;42.004;24.868;2022-07-29T13:48:01;4.25;;;3.30;;
6531;SDS011;3299;42.004;24.868;2022-07-29T13:50:26;3.75;;;3.45;;
6531;SDS011;3299;42.004;24.868;2022-07-29T13:52:52;4.28;;;2.78;;
6531;SDS011;3299;42.004;24.868;2022-07-29T13:55:17;4.38;;;2.58;;
6531;SDS011;3299;42.004;24.868;2022-07-29T13:57:43;4.55;;;3.20;;
6531;SDS011;3299;42.004;24.868;2022-07-29T14:00:09;2.70;;;2.60;;
6531;SDS011;3299;42.004;24.868;2022-07-29T14:02:35;3.42;;;3.13;;
6531;SDS011;3299;42.004;24.868;2022-07-29T14:05:02;3.40;;;3.10;;
6531;SDS011;3299;42.004;24.868;2022-07-29T14:07:28;8.02;;;2.88;;
6531;SDS011;3299;42.004;24.868;2022-07-29T14:09:53;7.43;;;2.78;;
6531;SDS011;3299;42.004;24.868;2022-07-29T14:12:19;4.45;;;2.80;;
6531;SDS011;3299;42.004;24.868;2022-07-29T14:14:44;5.32;;;2.80;;
6531;SDS011;3299;42.004;24.868;2022-07-29T14:17:09;3.80;;;2.33;;
6531;SDS011;3299;42.004;24.868;2022-07-29T14:19:35;5.85;;;2.65;;
6531;SDS011;3299;42.004;24.868;2022-07-29T14:22:03;2.50;;;2.30;;
6531;SDS011;3299;42.004;24.868;2022-07-29T14:24:29;5.03;;;2.53;;
6531;SDS011;3299;42.004;24.868;2022-07-29T14:26:55;2.50;;;2.40;;
6531;SDS011;3299;42.004;24.868;2022-07-29T14:29:21;2.60;;;2.50;;
6531;SDS011;3299;42.004;24.868;2022-07-29T14:31:46;3.78;;;2.53;;
6531;SDS011;3299;42.004;24.868;2022-07-29T14:34:11;5.20;;;2.20;;
6531;SDS011;3299;42.004;24.868;2022-07-29T14:36:37;4.22;;;2.45;;
6531;SDS011;3299;42.004;24.868;2022-07-29T14:39:02;4.20;;;2.33;;
6531;SDS011;3299;42.004;24.868;2022-07-29T14:41:28;4.65;;;2.80;;
6531;SDS011;3299;42.004;24.868;2022-07-29T14:43:54;7.57;;;2.50;;
6531;SDS011;3299;42.004;24.868;2022-07-29T14:46:20;2.50;;;2.30;;
6531;SDS011;3299;42.004;24.868;2022-07-29T14:48:45;4.20;;;2.35;;
6531;SDS011;3299;42.004;24.868;2022-07-29T14:51:11;8.32;;;2.60;;
6531;SDS011;3299;42.004;24.868;2022-07-29T14:53:36;7.95;;;2.92;;
6531;SDS011;3299;42.004;24.868;2022-07-29T14:56:02;3.10;;;2.30;;
6531;SDS011;3299;42.004;24.868;2022-07-29T14:58:27;2.60;;;2.40;;
6531;SDS011;3299;42.004;24.868;2022-07-29T15:00:53;3.33;;;2.70;;
6531;SDS011;3299;42.004;24.868;2022-07-29T15:03:19;2.97;;;2.25;;
6531;SDS011;3299;42.004;24.868;2022-07-29T15:05:45;3.55;;;2.60;;
6531;SDS011;3299;42.004;24.868;2022-07-29T15:08:10;3.85;;;2.53;;
6531;SDS011;3299;42.004;24.868;2022-07-29T15:10:36;2.75;;;2.33;;
6531;SDS011;3299;42.004;24.868;2022-07-29T15:13:01;2.53;;;2.35;;
6531;SDS011;3299;42.004;24.868;2022-07-29T15:15:27;4.57;;;2.50;;
6531;SDS011;3299;42.004;24.868;2022-07-29T15:17:52;3.78;;;3.10;;
6531;SDS011;3299;42.004;24.868;2022-07-29T15:20:18;3.30;;;2.47;;
6531;SDS011;3299;42.004;24.868;2022-07-29T15:22:43;4.13;;;2.70;;
6531;SDS011;3299;42.004;24.868;2022-07-29T15:25:09;3.33;;;3.13;;
6531;SDS011;3299;42.004;24.868;2022-07-29T15:27:35;4.45;;;2.70;;
6531;SDS011;3299;42.004;24.868;2022-07-29T15:30:00;2.97;;;2.70;;
6531;SDS011;3299;42.004;24.868;2022-07-29T15:32:26;2.70;;;2.50;;
6531;SDS011;3299;42.004;24.868;2022-07-29T15:34:51;2.90;;;2.70;;
6531;SDS011;3299;42.004;24.868;2022-07-29T15:37:16;3.60;;;2.97;;
6531;SDS011;3299;42.004;24.868;2022-07-29T15:39:42;4.70;;;2.70;;
6531;SDS011;3299;42.004;24.868;2022-07-29T15:42:07;3.03;;;2.60;;
6531;SDS011;3299;42.004;24.868;2022-07-29T15:44:33;6.55;;;2.75;;
6531;SDS011;3299;42.004;24.868;2022-07-29T15:46:59;5.95;;;2.70;;
6531;SDS011;3299;42.004;24.868;2022-07-29T15:49:34;5.03;;;2.63;;
6531;SDS011;3299;42.004;24.868;2022-07-29T15:52:02;3.33;;;3.10;;
6531;SDS011;3299;42.004;24.868;2022-07-29T15:54:31;5.25;;;3.38;;
6531;SDS011;3299;42.004;24.868;2022-07-29T15:56:57;4.90;;;3.20;;
6531;SDS011;3299;42.004;24.868;2022-07-29T15:59:23;5.15;;;3.83;;
6531;SDS011;3299;42.004;24.868;2022-07-29T16:01:49;5.68;;;3.72;;
6531;SDS011;3299;42.004;24.868;2022-07-29T16:04:15;3.28;;;2.97;;
6531;SDS011;3299;42.004;24.868;2022-07-29T16:06:41;5.00;;;3.20;;
6531;SDS011;3299;42.004;24.868;2022-07-29T16:09:07;5.65;;;2.75;;
6531;SDS011;3299;42.004;24.868;2022-07-29T16:11:32;6.55;;;3.15;;
6531;SDS011;3299;42.004;24.868;2022-07-29T16:13:58;4.63;;;2.58;;
6531;SDS011;3299;42.004;24.868;2022-07-29T16:16:23;3.08;;;2.88;;